トロント/ピアソン の空港の天気 - METARとTAF

トロント・ピアソン国際空港 ( CYYZ / YYZ ) - カナダ オンタリオ州トロント
飛行場実況気象(Metar)
観測時間08/16 02:00 EDT (08/16 06:00 UTC)
風向・風速西 3m/s
視程10km以上
天気現象
なし
気温22℃
湿度83%
気圧1015.7hPa
METARCYYZ 160600Z 28005KT 15SM SKC 22/19 A3000 RMK SLP157 DENSITY ALT 1500FT
過去の天気等 Google飛行場航空写真 Wunderground天気予報

過去48時間のMETAR

飛行場予報(TAF)
発表時間: 8/16 01:39 EDT (8/16 05:39 UTC)
予報対象時間: 16日2時 EDT ~ 17日8時 EDT
風向・風速不定 2m/s
視程10km以上
少しの雲 雲底高度 120m
16日5時 EDT から 確率 30% で
視程1610m
天気現象もや
16日12時 EDT から
風向・風速南南西 5m/s
視程10km以上
天気現象弱いしゅう雨
全天の8割程度の雲 雲底高度 910m
全天を覆う雲 雲底高度 3660m
16日13時 EDT から 確率 30% で
視程3220m
天気現象雷雨 もや
全天の8割程度の積乱雲 雲底高度 610m
16日15時 EDT から
風向・風速南西 5m/s 瞬間風速 10m/s
視程10km以上
天気現象弱いしゅう雨
全天の8割程度の雲 雲底高度 760m
全天を覆う雲 雲底高度 3660m
16日17時 EDT から 確率 30% で
視程3220m
天気現象雷雨 もや
全天を覆う積乱雲 雲底高度 460m
16日23時 EDT から
風向・風速南南西 5m/s 瞬間風速 10m/s
視程10km以上
天気現象弱いしゅう雨
少しの雲 雲底高度 180m
全天を覆う雲 雲底高度 610m
17日1時 EDT から 確率 30% で
視程3220m
天気現象雷雨 もや
全天の8割程度の雲 雲底高度 180m
全天を覆う積乱雲 雲底高度 460m
TAF CYYZ 160539Z 1606/1712 VRB03KT P6SM FEW004
PROB30 1609/1612 1SM BR
FM161600 20010KT P6SM -SHRA BKN030 OVC120
PROB30 1617/1619 2SM TSRA BR BKN020CB
FM161900 22010G20KT P6SM -SHRA BKN025 OVC120
PROB30 1621/1624 2SM TSRA BR OVC015CB
FM170300 20010G20KT P6SM -SHRA FEW006 OVC020
PROB30 1705/1709 2SM TSRA BR BKN006 OVC015CB RMK NXT FCST BY 160900Z